createdAt,value
2019-02-04T00:02:01.546Z,29.07
2019-02-04T00:04:30.632Z,22.60
2019-02-04T00:06:58.627Z,28.30
2019-02-04T00:09:26.278Z,29.63
2019-02-04T00:11:54.261Z,25.80
2019-02-04T00:14:22.040Z,27.90
2019-02-04T00:16:49.764Z,27.57
2019-02-04T00:19:17.562Z,27.60
2019-02-04T00:21:45.395Z,24.40
2019-02-04T00:24:14.942Z,27.47
2019-02-04T00:26:51.392Z,30.20
2019-02-04T00:29:12.643Z,30.00
2019-02-04T00:31:40.356Z,32.50
2019-02-04T00:34:08.089Z,28.33
2019-02-04T00:36:35.923Z,31.20
2019-02-04T00:39:06.407Z,31.00
2019-02-04T00:41:34.299Z,34.70
2019-02-04T00:44:02.271Z,27.87
2019-02-04T00:46:30.026Z,31.63
2019-02-04T00:48:57.848Z,31.53
2019-02-04T00:51:25.528Z,30.90
2019-02-04T00:53:53.437Z,30.87
2019-02-04T00:56:21.214Z,34.60
2019-02-04T00:58:49.332Z,32.10
2019-02-04T01:01:17.107Z,35.90
2019-02-04T01:03:44.971Z,31.00
2019-02-04T01:06:17.183Z,34.30
2019-02-04T01:08:45.082Z,36.93
2019-02-04T01:11:13.083Z,39.70
2019-02-04T01:13:40.848Z,37.10
2019-02-04T01:16:08.628Z,35.30
2019-02-04T01:18:36.630Z,36.93
2019-02-04T01:21:04.365Z,37.67
2019-02-04T01:23:32.190Z,36.77
2019-02-04T01:26:00.011Z,38.20
2019-02-04T01:28:27.877Z,41.47
2019-02-04T01:30:55.713Z,43.80
2019-02-04T01:33:23.505Z,41.93
2019-02-04T01:35:51.307Z,45.80
2019-02-04T01:38:18.975Z,44.43
2019-02-04T01:40:46.762Z,42.57
2019-02-04T01:43:14.567Z,43.60
2019-02-04T01:45:42.726Z,45.10
2019-02-04T01:48:10.566Z,41.13
2019-02-04T01:50:38.409Z,42.60
2019-02-04T01:53:06.214Z,52.40
2019-02-04T01:55:33.998Z,46.53
2019-02-04T01:58:01.699Z,56.43
2019-02-04T02:00:32.353Z,46.80
2019-02-04T02:03:00.175Z,54.63
2019-02-04T02:05:27.936Z,52.03
2019-02-04T02:07:56.075Z,50.60
2019-02-04T02:10:27.430Z,51.20
2019-02-04T02:12:55.359Z,50.10
2019-02-04T02:15:23.131Z,51.33
2019-02-04T02:17:51.635Z,59.00
2019-02-04T02:20:21.487Z,52.50
2019-02-04T02:22:49.198Z,46.97
2019-02-04T02:25:17.011Z,50.47
2019-02-04T02:27:44.865Z,50.87
2019-02-04T02:30:15.441Z,50.77
2019-02-04T02:32:43.201Z,50.07
2019-02-04T02:35:10.974Z,51.67
2019-02-04T02:37:38.768Z,50.27
2019-02-04T02:40:10.742Z,46.90
2019-02-04T02:42:38.589Z,49.27
2019-02-04T02:45:07.126Z,49.03
2019-02-04T02:47:38.492Z,50.37
2019-02-04T02:50:05.276Z,49.73
2019-02-04T02:52:33.039Z,44.73
2019-02-04T02:55:00.922Z,47.10
2019-02-04T02:57:28.666Z,44.20
2019-02-04T02:59:57.198Z,50.53
2019-02-04T03:02:24.945Z,49.00
2019-02-04T03:04:52.749Z,49.60
2019-02-04T03:07:20.511Z,49.87
2019-02-04T03:09:48.300Z,47.67
2019-02-04T03:12:16.054Z,52.00
2019-02-04T03:14:43.818Z,48.27
2019-02-04T03:17:11.571Z,53.37
2019-02-04T03:19:41.467Z,52.37
2019-02-04T03:22:11.067Z,51.87
2019-02-04T03:24:38.931Z,56.77
2019-02-04T03:27:06.664Z,54.80
2019-02-04T03:29:34.522Z,48.10
2019-02-04T03:32:02.289Z,60.10
2019-02-04T03:34:33.049Z,56.03
2019-02-04T03:37:01.045Z,53.83
2019-02-04T03:39:28.937Z,63.17
2019-02-04T03:41:56.703Z,57.93
2019-02-04T03:44:24.515Z,57.43
2019-02-04T03:46:52.275Z,53.80
2019-02-04T03:49:20.080Z,64.80
2019-02-04T03:51:47.821Z,51.67
2019-02-04T03:54:16.460Z,60.57
2019-02-04T03:56:44.184Z,58.20
2019-02-04T03:59:11.983Z,57.90
2019-02-04T04:01:39.714Z,58.30
2019-02-04T04:04:07.505Z,64.77
2019-02-04T04:06:35.586Z,57.13
2019-02-04T04:09:06.322Z,58.70
2019-02-04T04:11:34.131Z,57.47
2019-02-04T04:14:01.924Z,57.80
2019-02-04T04:16:29.761Z,58.43
2019-02-04T04:18:57.595Z,61.97
2019-02-04T04:21:25.728Z,66.97
2019-02-04T04:23:53.552Z,61.37
2019-02-04T04:26:21.315Z,60.37
2019-02-04T04:28:49.060Z,73.10
2019-02-04T04:31:16.838Z,63.57
2019-02-04T04:33:44.552Z,65.67
2019-02-04T04:36:12.378Z,58.37
2019-02-04T04:38:40.448Z,57.73
2019-02-04T04:41:08.291Z,64.57
2019-02-04T04:43:36.076Z,58.67
2019-02-04T04:46:03.842Z,60.57
2019-02-04T04:48:31.573Z,56.43
2019-02-04T04:50:59.373Z,53.63
2019-02-04T04:53:27.142Z,56.03
2019-02-04T04:55:54.991Z,58.13
2019-02-04T04:58:22.799Z,56.90
2019-02-04T05:00:50.623Z,55.30
2019-02-04T05:03:18.403Z,55.90
2019-02-04T05:05:46.233Z,51.63
2019-02-04T05:08:14.038Z,58.90
2019-02-04T05:10:42.209Z,53.00
2019-02-04T05:13:10.270Z,55.03
2019-02-04T05:15:38.066Z,53.13
2019-02-04T05:18:05.846Z,52.80
2019-02-04T05:20:37.583Z,51.73
2019-02-04T05:23:05.448Z,45.43
2019-02-04T05:25:33.602Z,48.07
2019-02-04T05:28:01.450Z,49.33
2019-02-04T05:30:29.221Z,45.87
2019-02-04T05:32:56.998Z,48.00
2019-02-04T05:35:24.837Z,46.43
2019-02-04T05:37:52.751Z,47.07
2019-02-04T05:40:20.582Z,49.37
2019-02-04T05:42:48.657Z,43.33
2019-02-04T05:45:17.972Z,43.07
2019-02-04T05:47:45.767Z,47.90
2019-02-04T05:50:17.267Z,46.97
2019-02-04T05:52:44.308Z,42.67
2019-02-04T05:55:13.131Z,43.87
2019-02-04T05:57:41.030Z,39.37
2019-02-04T06:00:14.383Z,38.97
2019-02-04T06:02:42.027Z,38.17
2019-02-04T06:05:10.534Z,43.40
2019-02-04T06:07:38.398Z,42.43
2019-02-04T06:10:07.093Z,40.97
2019-02-04T06:12:35.205Z,39.97
2019-02-04T06:15:03.989Z,42.07
2019-02-04T06:17:31.874Z,37.47
2019-02-04T06:19:59.681Z,38.93
2019-02-04T06:22:27.453Z,40.90
2019-02-04T06:24:55.208Z,33.63
2019-02-04T06:27:22.980Z,39.60
2019-02-04T06:29:52.232Z,32.50
2019-02-04T06:32:20.140Z,34.40
2019-02-04T06:34:47.895Z,34.20
2019-02-04T06:37:15.595Z,35.27
2019-02-04T06:39:45.151Z,33.73
2019-02-04T06:42:12.846Z,32.50
2019-02-04T06:44:40.812Z,33.30
2019-02-04T06:47:08.519Z,31.23
2019-02-04T06:49:36.221Z,32.13
2019-02-04T06:52:03.927Z,31.17
2019-02-04T06:54:31.614Z,33.83
2019-02-04T06:56:59.300Z,29.90
2019-02-04T06:59:26.980Z,32.20
2019-02-04T07:01:57.617Z,30.93
2019-02-04T07:04:24.234Z,31.97
2019-02-04T07:06:51.945Z,30.67
2019-02-04T07:09:19.761Z,31.07
2019-02-04T07:11:47.489Z,29.70
2019-02-04T07:14:15.188Z,29.40
2019-02-04T07:16:42.862Z,25.37
2019-02-04T07:19:10.530Z,27.47
2019-02-04T07:21:38.242Z,28.97
2019-02-04T07:24:06.214Z,27.77
2019-02-04T07:26:34.126Z,25.83
2019-02-04T07:29:01.802Z,30.57
2019-02-04T07:31:29.492Z,28.80
2019-02-04T07:33:57.162Z,29.87
2019-02-04T07:36:24.868Z,25.23
2019-02-04T07:38:52.626Z,24.17
2019-02-04T07:41:20.381Z,25.90
2019-02-04T07:43:48.085Z,24.80
2019-02-04T07:46:15.808Z,24.23
2019-02-04T07:48:45.181Z,25.77
2019-02-04T07:51:13.377Z,27.07
2019-02-04T07:53:41.132Z,25.27
2019-02-04T07:56:08.815Z,25.43
2019-02-04T07:58:36.519Z,25.37
2019-02-04T08:01:04.216Z,23.07
2019-02-04T08:03:31.983Z,22.13
2019-02-04T08:05:59.707Z,25.50
2019-02-04T08:08:27.796Z,22.87
2019-02-04T08:10:55.464Z,23.83
2019-02-04T08:13:23.235Z,24.10
2019-02-04T08:15:51.206Z,25.80
2019-02-04T08:18:19.128Z,23.07
2019-02-04T08:20:46.973Z,25.43
2019-02-04T08:23:16.756Z,24.77
2019-02-04T08:25:44.607Z,27.17
2019-02-04T08:28:12.640Z,24.10
2019-02-04T08:30:40.271Z,25.83
2019-02-04T08:33:07.980Z,23.27
2019-02-04T08:35:35.613Z,23.63
2019-02-04T08:38:03.600Z,25.83
2019-02-04T08:40:31.328Z,24.40
2019-02-04T08:42:59.087Z,24.07
2019-02-04T08:45:26.745Z,25.27
2019-02-04T08:47:54.446Z,23.20
2019-02-04T08:50:22.250Z,20.10
2019-02-04T08:52:50.054Z,21.13
2019-02-04T08:55:17.702Z,20.93
2019-02-04T08:57:45.734Z,20.70
2019-02-04T09:00:16.140Z,22.63
2019-02-04T09:02:43.791Z,16.30
2019-02-04T09:05:12.695Z,19.57
2019-02-04T09:07:40.446Z,20.33
2019-02-04T09:10:09.295Z,19.63
2019-02-04T09:12:40.405Z,20.43
2019-02-04T09:15:09.930Z,19.50
2019-02-04T09:17:37.653Z,22.00
2019-02-04T09:20:10.134Z,18.13
2019-02-04T09:22:36.413Z,18.70
2019-02-04T09:25:04.677Z,18.77
2019-02-04T09:27:32.356Z,18.20
2019-02-04T09:29:59.997Z,18.07
2019-02-04T09:32:28.088Z,20.67
2019-02-04T09:34:55.761Z,20.63
2019-02-04T09:37:23.479Z,18.93
2019-02-04T09:39:51.502Z,18.47
2019-02-04T09:42:19.596Z,17.80
2019-02-04T09:44:47.274Z,18.63
2019-02-04T09:47:15.004Z,18.40
2019-02-04T09:49:43.003Z,17.93
2019-02-04T09:52:10.764Z,19.90
2019-02-04T09:54:43.970Z,17.43
2019-02-04T09:57:11.685Z,20.07
2019-02-04T09:59:39.411Z,15.93
2019-02-04T10:02:07.137Z,19.47
2019-02-04T10:04:35.091Z,15.07
2019-02-04T10:07:02.805Z,14.87
2019-02-04T10:09:30.468Z,17.53
2019-02-04T10:11:58.208Z,15.23
2019-02-04T10:14:25.860Z,15.30
2019-02-04T10:16:53.623Z,14.97
2019-02-04T10:19:21.260Z,14.47
2019-02-04T10:21:49.206Z,16.33
2019-02-04T10:24:16.907Z,16.57
2019-02-04T10:26:47.730Z,15.00
2019-02-04T10:29:15.339Z,12.90
2019-02-04T10:31:43.106Z,13.40
2019-02-04T10:34:10.759Z,15.97
2019-02-04T10:36:38.848Z,12.90
2019-02-04T10:39:08.253Z,14.63
2019-02-04T10:41:36.111Z,15.20
2019-02-04T10:44:04.333Z,14.43
2019-02-04T10:46:32.138Z,15.47
2019-02-04T10:48:59.890Z,15.77
2019-02-04T10:51:27.543Z,15.00
2019-02-04T10:53:55.627Z,12.10
2019-02-04T10:56:23.341Z,15.07
2019-02-04T10:58:51.057Z,15.77
2019-02-04T11:01:18.810Z,13.33
2019-02-04T11:03:46.468Z,13.70
2019-02-04T11:06:14.167Z,18.37
2019-02-04T11:08:41.816Z,13.20
2019-02-04T11:11:09.555Z,13.63
2019-02-04T11:13:37.320Z,11.67
2019-02-04T11:16:05.213Z,15.27
2019-02-04T11:18:32.940Z,14.60
2019-02-04T11:21:00.650Z,14.50
2019-02-04T11:23:29.244Z,13.93
2019-02-04T11:25:57.209Z,13.80
2019-02-04T11:28:25.097Z,14.00
2019-02-04T11:31:01.027Z,13.70
2019-02-04T11:33:28.762Z,14.60
2019-02-04T11:35:56.414Z,15.97
2019-02-04T11:38:24.145Z,13.13
2019-02-04T11:40:53.614Z,17.43
2019-02-04T11:43:21.352Z,12.43
2019-02-04T11:45:49.213Z,12.73
2019-02-04T11:48:19.060Z,11.87
2019-02-04T11:50:46.908Z,15.07
2019-02-04T11:53:17.403Z,11.77
2019-02-04T11:55:48.564Z,14.43
2019-02-04T11:58:16.501Z,15.47
2019-02-04T12:00:44.309Z,12.80
2019-02-04T12:03:13.634Z,12.53
2019-02-04T12:05:41.342Z,13.80
2019-02-04T12:08:09.435Z,11.77
2019-02-04T12:10:46.254Z,10.90
2019-02-04T12:13:15.376Z,10.70
2019-02-04T12:15:44.272Z,10.47
2019-02-04T12:18:19.648Z,11.03
2019-02-04T12:20:48.956Z,11.27
2019-02-04T12:23:21.181Z,10.00
2019-02-04T12:25:55.026Z,10.43
2019-02-04T12:28:23.980Z,9.73
2019-02-04T12:30:53.930Z,11.87
2019-02-04T12:33:28.816Z,8.83
2019-02-04T12:35:57.484Z,9.53
2019-02-04T12:38:28.284Z,8.87
2019-02-04T12:40:59.107Z,9.30
2019-02-04T12:43:29.993Z,8.47
2019-02-04T12:46:00.591Z,10.50
2019-02-04T12:48:30.710Z,10.23
2019-02-04T12:51:00.686Z,8.83
2019-02-04T12:53:28.631Z,8.30
2019-02-04T12:55:56.450Z,8.97
2019-02-04T12:58:24.281Z,8.00
2019-02-04T13:00:52.941Z,7.67
2019-02-04T13:03:24.151Z,8.70
2019-02-04T13:05:53.735Z,8.87
2019-02-04T13:08:21.810Z,7.97
2019-02-04T13:10:52.133Z,11.13
2019-02-04T13:13:22.025Z,9.27
2019-02-04T13:15:52.074Z,8.17
2019-02-04T13:18:22.319Z,7.07
2019-02-04T13:20:50.615Z,9.17
2019-02-04T13:23:19.771Z,6.93
2019-02-04T13:25:48.814Z,6.93
2019-02-04T13:28:22.261Z,8.07
2019-02-04T13:30:51.878Z,6.03
2019-02-04T13:33:20.811Z,8.20
2019-02-04T13:35:49.129Z,7.13
2019-02-04T13:38:17.162Z,4.87
2019-02-04T13:40:45.253Z,7.13
2019-02-04T13:43:16.187Z,9.20
2019-02-04T13:45:44.474Z,5.73
2019-02-04T13:48:13.516Z,7.93
2019-02-04T13:50:41.955Z,6.50
2019-02-04T13:53:10.796Z,5.33
2019-02-04T13:55:43.228Z,4.63
2019-02-04T13:58:13.767Z,5.57
2019-02-04T14:00:43.505Z,4.37
2019-02-04T14:03:12.293Z,5.27
2019-02-04T14:05:44.813Z,3.90
2019-02-04T14:08:14.298Z,7.90
2019-02-04T14:10:45.947Z,6.57
2019-02-04T14:13:12.951Z,5.83
2019-02-04T14:15:43.130Z,5.80
2019-02-04T14:18:12.839Z,4.20
2019-02-04T14:20:41.480Z,6.93
2019-02-04T14:23:09.446Z,4.13
2019-02-04T14:25:38.643Z,4.63
2019-02-04T14:28:06.566Z,4.33
2019-02-04T14:30:38.781Z,7.47
2019-02-04T14:33:10.903Z,5.87
2019-02-04T14:35:39.002Z,4.90
2019-02-04T14:38:08.166Z,5.40
2019-02-04T14:40:57.776Z,5.87
2019-02-04T14:43:37.357Z,5.33
2019-02-04T14:46:38.673Z,5.80
2019-02-04T14:50:04.069Z,5.57
2019-02-04T14:53:05.219Z,6.10
2019-02-04T14:56:11.321Z,7.27
2019-02-04T14:59:00.914Z,9.30
2019-02-04T15:02:02.162Z,7.70
2019-02-04T15:05:09.447Z,5.77
2019-02-04T15:07:51.960Z,5.20
2019-02-04T15:11:07.205Z,5.37
2019-02-04T15:14:25.537Z,7.20
2019-02-04T15:16:58.647Z,8.43
2019-02-04T15:20:01.250Z,6.40
2019-02-04T15:23:01.994Z,7.87
2019-02-04T15:26:18.407Z,8.50
2019-02-04T15:29:11.665Z,6.53
2019-02-04T15:32:13.301Z,6.60
2019-02-04T15:35:13.974Z,5.57
2019-02-04T15:38:09.698Z,7.27
2019-02-04T15:40:50.056Z,8.27
2019-02-04T15:43:53.822Z,9.10
2019-02-04T15:46:37.402Z,6.83
2019-02-04T15:49:50.775Z,7.17
2019-02-04T15:52:19.555Z,6.83
2019-02-04T15:54:47.372Z,6.20
2019-02-04T15:57:15.734Z,8.23
2019-02-04T15:59:46.019Z,5.87
2019-02-04T16:02:15.479Z,7.90
2019-02-04T16:04:43.441Z,11.07
2019-02-04T16:07:12.731Z,5.30
2019-02-04T16:09:41.173Z,6.90
2019-02-04T16:12:10.210Z,6.70
2019-02-04T16:14:41.509Z,8.07
2019-02-04T16:17:14.483Z,6.63
2019-02-04T16:19:42.750Z,5.37
2019-02-04T16:22:13.809Z,7.50
2019-02-04T16:24:52.104Z,4.97
2019-02-04T16:27:20.035Z,6.30
2019-02-04T16:29:48.610Z,5.30
2019-02-04T16:32:18.780Z,5.20
2019-02-04T16:34:46.601Z,5.17
2019-02-04T16:37:14.534Z,3.67
2019-02-04T16:39:43.380Z,5.33
2019-02-04T16:42:13.351Z,5.50
2019-02-04T16:44:41.369Z,6.07
2019-02-04T16:47:13.884Z,4.33
2019-02-04T16:49:42.117Z,5.83
2019-02-04T16:52:12.460Z,3.87
2019-02-04T16:54:40.967Z,4.37
2019-02-04T16:57:08.603Z,4.47
2019-02-04T16:59:36.329Z,4.33
2019-02-04T17:02:04.078Z,7.50
2019-02-04T17:04:31.784Z,6.47
2019-02-04T17:06:59.450Z,6.33
2019-02-04T17:09:27.100Z,5.23
2019-02-04T17:11:55.174Z,5.07
2019-02-04T17:14:22.846Z,4.20
2019-02-04T17:16:50.620Z,3.73
2019-02-04T17:19:18.437Z,4.33
2019-02-04T17:21:46.190Z,5.47
2019-02-04T17:24:13.954Z,4.33
2019-02-04T17:26:41.667Z,3.57
2019-02-04T17:29:09.743Z,3.87
2019-02-04T17:31:37.530Z,4.00
2019-02-04T17:34:05.451Z,4.43
2019-02-04T17:36:33.187Z,5.37
2019-02-04T17:39:00.921Z,6.00
2019-02-04T17:41:28.857Z,5.63
2019-02-04T17:43:56.521Z,6.73
2019-02-04T17:46:24.919Z,6.00
2019-02-04T17:48:53.562Z,6.37
2019-02-04T17:51:21.298Z,5.10
2019-02-04T17:53:49.084Z,4.23
2019-02-04T17:56:16.828Z,6.90
2019-02-04T17:58:44.559Z,4.63
2019-02-04T18:01:12.221Z,6.60
2019-02-04T18:03:40.162Z,4.63
2019-02-04T18:06:07.900Z,4.90
2019-02-04T18:08:35.673Z,5.50
2019-02-04T18:11:03.658Z,5.47
2019-02-04T18:13:31.821Z,6.77
2019-02-04T18:15:59.473Z,4.33
2019-02-04T18:18:27.202Z,5.97
2019-02-04T18:20:54.903Z,5.53
2019-02-04T18:23:22.649Z,5.30
2019-02-04T18:25:50.313Z,4.90
2019-02-04T18:28:18.571Z,4.50
2019-02-04T18:30:47.493Z,7.17
2019-02-04T18:33:15.817Z,6.03
2019-02-04T18:35:44.366Z,4.67
2019-02-04T18:38:17.866Z,5.93
2019-02-04T18:40:46.539Z,6.00
2019-02-04T18:43:16.144Z,6.70
2019-02-04T18:45:48.129Z,6.70
2019-02-04T18:48:17.920Z,7.03
2019-02-04T18:50:46.503Z,5.90
2019-02-04T18:53:14.307Z,6.80
2019-02-04T18:55:44.781Z,6.97
2019-02-04T18:58:12.488Z,4.83
2019-02-04T19:00:40.613Z,6.03
2019-02-04T19:03:16.796Z,6.23
2019-02-04T19:05:38.213Z,5.60
2019-02-04T19:08:06.032Z,5.77
2019-02-04T19:10:34.031Z,6.63
2019-02-04T19:13:01.787Z,7.17
2019-02-04T19:15:30.611Z,5.43
2019-02-04T19:18:02.025Z,6.63
2019-02-04T19:20:30.452Z,6.20
2019-02-04T19:23:01.066Z,6.00
2019-02-04T19:25:31.077Z,6.43
2019-02-04T19:28:02.656Z,6.57
2019-02-04T19:30:36.003Z,6.20
2019-02-04T19:33:05.390Z,7.80
2019-02-04T19:35:33.879Z,6.53
2019-02-04T19:38:01.638Z,6.57
2019-02-04T19:40:31.255Z,8.57
2019-02-04T19:42:59.097Z,5.77
2019-02-04T19:45:27.415Z,8.43
2019-02-04T19:47:55.299Z,7.07
2019-02-04T19:50:25.872Z,7.63
2019-02-04T19:52:53.655Z,7.77
2019-02-04T19:55:23.338Z,7.07
2019-02-04T19:57:51.260Z,7.40
2019-02-04T20:00:20.696Z,7.87
2019-02-04T20:02:50.426Z,7.27
2019-02-04T20:05:20.174Z,6.50
2019-02-04T20:07:48.289Z,6.40
2019-02-04T20:10:25.089Z,8.63
2019-02-04T20:12:53.307Z,8.83
2019-02-04T20:15:24.573Z,7.37
2019-02-04T20:17:52.253Z,6.30
2019-02-04T20:20:20.570Z,8.13
2019-02-04T20:22:48.408Z,6.23
2019-02-04T20:25:21.650Z,6.50
2019-02-04T20:27:50.195Z,5.00
2019-02-04T20:30:21.127Z,5.83
2019-02-04T20:32:51.482Z,6.47
2019-02-04T20:35:20.510Z,6.80
2019-02-04T20:37:48.696Z,6.43
2019-02-04T20:40:18.328Z,5.30
2019-02-04T20:42:46.019Z,4.73
2019-02-04T20:45:14.558Z,6.63
2019-02-04T20:47:42.974Z,4.67
2019-02-04T20:50:24.683Z,6.60
2019-02-04T20:52:52.602Z,3.93
2019-02-04T20:55:21.017Z,6.37
2019-02-04T20:57:51.189Z,4.60
2019-02-04T21:00:21.525Z,6.57
2019-02-04T21:02:50.146Z,4.97
2019-02-04T21:05:18.335Z,4.20
2019-02-04T21:07:46.041Z,5.27
2019-02-04T21:10:16.175Z,8.53
2019-02-04T21:12:43.835Z,6.20
2019-02-04T21:15:12.229Z,8.47
2019-02-04T21:17:39.904Z,5.60
2019-02-04T21:20:13.621Z,7.93
2019-02-04T21:22:42.251Z,7.80
2019-02-04T21:25:10.306Z,6.27
2019-02-04T21:27:37.978Z,7.40
2019-02-04T21:30:12.865Z,5.97
2019-02-04T21:32:40.547Z,5.33
2019-02-04T21:35:08.311Z,5.47
2019-02-04T21:37:37.134Z,5.17
2019-02-04T21:40:07.629Z,6.30
2019-02-04T21:42:35.879Z,5.33
2019-02-04T21:45:05.437Z,4.63
2019-02-04T21:47:33.158Z,5.10
2019-02-04T21:50:00.869Z,4.83
2019-02-04T21:52:28.623Z,4.67
2019-02-04T21:55:07.703Z,11.13
2019-02-04T21:57:25.758Z,6.67
2019-02-04T21:59:53.538Z,5.27
2019-02-04T22:02:21.398Z,6.83
2019-02-04T22:04:49.076Z,5.67
2019-02-04T22:07:16.795Z,7.07
2019-02-04T22:09:44.798Z,4.77
2019-02-04T22:12:12.474Z,4.87
2019-02-04T22:14:40.125Z,9.30
2019-02-04T22:17:10.976Z,5.70
2019-02-04T22:19:38.688Z,5.30
2019-02-04T22:22:06.424Z,5.30
2019-02-04T22:24:34.066Z,4.93
2019-02-04T22:27:01.744Z,4.80
2019-02-04T22:29:31.035Z,4.53
2019-02-04T22:31:59.039Z,8.03
2019-02-04T22:34:27.054Z,6.23
2019-02-04T22:36:54.773Z,5.20
2019-02-04T22:39:22.479Z,5.67
2019-02-04T22:41:50.165Z,4.00
2019-02-04T22:44:17.881Z,5.90
2019-02-04T22:46:45.596Z,4.50
2019-02-04T22:49:13.233Z,5.20
2019-02-04T22:51:40.963Z,5.17
2019-02-04T22:54:09.123Z,5.07
2019-02-04T22:56:37.221Z,6.50
2019-02-04T22:59:04.899Z,6.83
2019-02-04T23:01:39.148Z,6.57
2019-02-04T23:04:07.897Z,6.47
2019-02-04T23:06:35.647Z,5.70
2019-02-04T23:09:07.634Z,6.53
2019-02-04T23:11:35.636Z,6.20
2019-02-04T23:14:05.931Z,5.17
2019-02-04T23:16:33.741Z,6.77
2019-02-04T23:19:01.527Z,6.93
2019-02-04T23:21:29.216Z,8.10
2019-02-04T23:23:56.884Z,6.87
2019-02-04T23:26:24.646Z,6.30
2019-02-04T23:28:52.292Z,6.37
2019-02-04T23:31:20.390Z,6.30
2019-02-04T23:33:48.078Z,6.97
2019-02-04T23:36:15.798Z,10.97
2019-02-04T23:38:43.574Z,7.43
2019-02-04T23:41:11.272Z,6.83
2019-02-04T23:43:38.932Z,7.93
2019-02-04T23:46:06.649Z,7.13
2019-02-04T23:48:34.312Z,8.37
2019-02-04T23:51:01.992Z,11.63
2019-02-04T23:53:29.699Z,9.37
2019-02-04T23:55:57.474Z,9.10
2019-02-04T23:58:25.155Z,8.83
